Time;durP1;ratioP1;P1;durP2;ratioP2;P2;SDS_P1;SDS_P2;PMS_P1;PMS_P2;Temp;Humidity;BMP_temperature;BMP_pressure;BME280_temperature;BME280_humidity;BME280_pressure;Samples;Min_cycle;Max_cycle;Signal;HPM_P1;HPM_P2
2022/03/18 00:01:51;;;;;;;29.70;25.10;;;;;;;1.21;40.56;99731.41;105972;1280;22535;-77
2022/03/18 00:04:19;;;;;;;25.70;23.10;;;;;;;1.20;40.60;99733.56;105922;1280;25516;-78
2022/03/18 00:06:48;;;;;;;26.60;23.70;;;;;;;1.20;40.62;99735.88;106012;1280;24276;-77
2022/03/18 00:09:16;;;;;;;30.40;23.40;;;;;;;1.18;40.69;99735.59;105955;1280;22695;-77
2022/03/18 00:11:44;;;;;;;26.30;23.20;;;;;;;1.17;40.64;99741.79;105881;1280;25996;-77
2022/03/18 00:14:12;;;;;;;28.10;23.20;;;;;;;1.14;40.80;99744.25;105913;1280;23959;-77
2022/03/18 00:16:40;;;;;;;27.10;24.40;;;;;;;1.11;40.87;99742.20;105876;1279;24250;-78
2022/03/18 00:19:08;;;;;;;27.20;23.50;;;;;;;1.08;40.75;99745.88;105598;1280;22560;-77
2022/03/18 00:21:36;;;;;;;26.30;23.50;;;;;;;1.05;40.96;99753.58;105918;1279;22600;-77
2022/03/18 00:24:05;;;;;;;26.60;23.70;;;;;;;1.03;41.06;99755.23;105783;1280;24244;-77
2022/03/18 00:26:33;;;;;;;26.00;23.30;;;;;;;1.00;41.05;99750.31;105826;1280;22698;-78
2022/03/18 00:29:01;;;;;;;25.30;22.40;;;;;;;0.96;41.33;99754.30;105827;1280;22751;-78
2022/03/18 00:31:30;;;;;;;24.10;21.50;;;;;;;0.94;41.16;99746.94;105496;1280;22550;-78
2022/03/18 00:33:58;;;;;;;30.10;23.00;;;;;;;0.92;41.24;99744.23;106000;1279;25331;-78
2022/03/18 00:36:26;;;;;;;23.60;21.30;;;;;;;0.90;41.38;99740.86;105920;1280;25433;-78
2022/03/18 00:38:54;;;;;;;24.50;22.00;;;;;;;0.89;41.26;99739.06;105771;1280;24391;-77
2022/03/18 00:41:22;;;;;;;24.30;21.70;;;;;;;0.88;41.28;99738.81;106016;1280;24505;-78
2022/03/18 00:43:52;;;;;;;27.60;24.60;;;;;;;0.87;41.28;99740.48;106028;1279;22560;-77
2022/03/18 00:46:22;;;;;;;24.90;21.70;;;;;;;0.85;41.35;99736.63;106027;1280;22648;-78
2022/03/18 00:54:25;;;;;;;24.40;21.80;;;;;;;0.83;41.43;99741.27;105824;1280;25473;-78
2022/03/18 00:56:52;;;;;;;26.10;22.90;;;;;;;0.83;41.49;99739.05;105722;1280;22565;-78
2022/03/18 00:59:20;;;;;;;22.80;20.50;;;;;;;0.83;41.35;99733.91;105807;1280;25402;-78
2022/03/18 01:01:52;;;;;;;24.80;22.20;;;;;;;0.84;41.43;99733.98;105749;1278;24244;-78
2022/03/18 01:04:22;;;;;;;24.40;21.90;;;;;;;0.84;41.38;99729.23;106005;1280;25320;-78
2022/03/18 01:06:52;;;;;;;23.40;20.60;;;;;;;0.84;41.35;99733.14;105974;1280;22553;-78
2022/03/18 01:09:22;;;;;;;24.00;21.50;;;;;;;0.84;41.40;99732.37;105786;1280;23931;-78
2022/03/18 01:11:52;;;;;;;24.30;21.80;;;;;;;0.83;41.40;99732.69;105804;1280;25379;-78
2022/03/18 01:14:21;;;;;;;24.50;22.00;;;;;;;0.82;41.54;99736.55;106001;1280;22693;-78
2022/03/18 01:16:49;;;;;;;24.50;22.00;;;;;;;0.81;41.46;99735.63;105519;1280;24395;-78
2022/03/18 01:19:18;;;;;;;25.80;22.70;;;;;;;0.79;41.50;99735.14;105979;1279;22560;-77
2022/03/18 01:21:46;;;;;;;24.10;21.60;;;;;;;0.78;41.69;99731.98;105701;1280;22733;-80
2022/03/18 01:24:14;;;;;;;25.50;22.50;;;;;;;0.75;41.72;99731.39;105642;1280;157711;-82
2022/03/18 01:26:42;;;;;;;23.70;21.30;;;;;;;0.74;41.68;99732.02;105606;1280;22635;-80
2022/03/18 01:29:10;;;;;;;26.30;22.80;;;;;;;0.73;41.71;99732.10;106079;1280;26688;-78
2022/03/18 01:31:38;;;;;;;25.80;23.10;;;;;;;0.69;41.77;99736.17;106063;1280;22569;-78
2022/03/18 01:34:06;;;;;;;26.30;23.60;;;;;;;0.66;41.71;99735.49;106029;1280;22618;-77
2022/03/18 01:36:34;;;;;;;27.60;23.90;;;;;;;0.63;41.83;99731.18;105826;1280;25409;-78
2022/03/18 01:39:03;;;;;;;26.60;23.50;;;;;;;0.59;41.90;99729.72;106035;1280;25444;-78
2022/03/18 01:41:32;;;;;;;28.00;24.50;;;;;;;0.55;42.00;99727.91;105773;1280;24376;-78
2022/03/18 01:44:00;;;;;;;26.70;23.50;;;;;;;0.50;41.97;99729.38;106057;1280;22579;-77
2022/03/18 01:46:27;;;;;;;29.90;23.10;;;;;;;0.46;42.06;99730.06;106003;1280;22735;-77
2022/03/18 01:48:55;;;;;;;29.40;25.10;;;;;;;0.42;42.13;99728.41;105747;1280;25036;-77
2022/03/18 01:51:23;;;;;;;27.60;24.60;;;;;;;0.38;42.22;99731.83;105736;1280;24113;-77
2022/03/18 01:54:44;;;;;;;28.00;25.30;;;;;;;0.34;42.13;99728.96;105815;1280;24121;-77
2022/03/18 01:56:40;;;;;;;26.40;23.80;;;;;;;0.31;42.30;99730.98;105698;1279;25432;-77
2022/03/18 01:59:08;;;;;;;26.00;23.10;;;;;;;0.27;42.59;99728.06;105928;1280;25466;-78
2022/03/18 02:01:36;;;;;;;26.20;23.50;;;;;;;0.24;42.43;99723.71;105899;1280;23524;-78
2022/03/18 02:04:05;;;;;;;24.00;21.80;;;;;;;0.22;42.65;99728.42;106086;1280;25417;-77
2022/03/18 02:06:37;;;;;;;23.70;21.40;;;;;;;0.19;42.62;99725.58;105755;1280;22546;-77
2022/03/18 02:09:05;;;;;;;24.60;21.90;;;;;;;0.17;42.70;99728.09;105766;1280;25490;-76
2022/03/18 02:11:33;;;;;;;25.10;22.60;;;;;;;0.15;42.72;99726.61;105754;1280;22906;-75
2022/03/18 02:14:01;;;;;;;27.10;24.30;;;;;;;0.13;42.98;99724.76;105683;1280;24299;-76
2022/03/18 02:16:29;;;;;;;25.80;23.20;;;;;;;0.08;42.87;99730.75;105609;1280;24327;-77
2022/03/18 02:18:57;;;;;;;27.20;23.80;;;;;;;0.05;42.88;99735.56;105672;1280;26650;-76
2022/03/18 02:21:28;;;;;;;23.00;20.60;;;;;;;0.01;43.11;99737.07;105734;1280;22717;-77
2022/03/18 02:23:58;;;;;;;25.10;22.60;;;;;;;-0.02;43.18;99740.94;105519;1280;24224;-78
2022/03/18 02:26:26;;;;;;;27.30;22.70;;;;;;;-0.05;43.26;99743.96;105837;1280;22700;-78
2022/03/18 02:28:56;;;;;;;23.10;20.90;;;;;;;-0.07;43.17;99746.91;105992;1280;24502;-78
2022/03/18 02:31:30;;;;;;;23.40;21.00;;;;;;;-0.10;42.90;99750.88;106021;1280;26660;-76
2022/03/18 02:33:58;;;;;;;24.30;21.90;;;;;;;-0.12;43.26;99751.55;106032;1280;24218;-76
2022/03/18 02:36:26;;;;;;;24.40;21.80;;;;;;;-0.16;43.54;99752.35;105740;1280;25377;-77
2022/03/18 02:38:54;;;;;;;24.80;22.30;;;;;;;-0.19;43.41;99750.63;105763;1280;24495;-77
2022/03/18 02:41:21;;;;;;;25.50;22.70;;;;;;;-0.22;43.45;99750.63;105757;1280;22626;-77
2022/03/18 02:43:49;;;;;;;24.60;22.00;;;;;;;-0.27;43.63;99751.55;105734;1280;23955;-76
2022/03/18 02:46:17;;;;;;;23.80;21.50;;;;;;;-0.31;43.57;99756.27;105733;1280;24451;-76
2022/03/18 02:48:45;;;;;;;27.70;22.90;;;;;;;-0.35;43.86;99756.97;105469;1280;25411;-78
2022/03/18 02:51:13;;;;;;;23.80;21.30;;;;;;;-0.39;43.93;99758.14;105948;1280;22598;-77
2022/03/18 02:53:41;;;;;;;23.40;21.10;;;;;;;-0.43;43.90;99760.36;105991;1279;22558;-78
2022/03/18 02:56:09;;;;;;;23.60;20.50;;;;;;;-0.46;44.01;99764.42;106008;1279;25307;-76
2022/03/18 02:58:37;;;;;;;26.90;22.60;;;;;;;-0.51;44.09;99769.58;105747;1280;22603;-77
2022/03/18 03:01:04;;;;;;;24.20;21.70;;;;;;;-0.54;43.97;99771.40;105741;1280;22568;-77
2022/03/18 03:03:33;;;;;;;25.90;23.10;;;;;;;-0.57;44.09;99777.16;105796;1280;22716;-75
2022/03/18 03:08:47;;;;;;;26.50;22.80;;;;;;;-0.64;44.30;99775.85;105765;1280;22579;-77
2022/03/18 03:11:16;;;;;;;23.80;21.50;;;;;;;-0.66;44.23;99780.42;105784;1279;26519;-77
2022/03/18 03:13:44;;;;;;;28.70;23.10;;;;;;;-0.69;44.46;99780.04;105454;1280;22540;-76
2022/03/18 03:16:12;;;;;;;24.00;21.20;;;;;;;-0.72;44.58;99782.61;105805;1279;24378;-77
2022/03/18 03:18:40;;;;;;;24.90;22.30;;;;;;;-0.75;44.78;99782.67;105696;1280;22554;-78
2022/03/18 03:21:08;;;;;;;24.50;21.50;;;;;;;-0.77;44.69;99784.86;105599;1280;22552;-77
2022/03/18 03:23:36;;;;;;;22.90;20.60;;;;;;;-0.80;44.82;99780.41;105899;1280;24071;-77
2022/03/18 03:26:04;;;;;;;24.10;21.50;;;;;;;-0.81;44.87;99785.38;106099;1280;24094;-78
2022/03/18 03:28:33;;;;;;;23.60;21.20;;;;;;;-0.83;44.79;99782.73;105862;1280;22639;-78
2022/03/18 03:31:01;;;;;;;25.00;22.50;;;;;;;-0.86;44.91;99780.75;105828;1280;22705;-77
2022/03/18 03:33:29;;;;;;;25.00;22.40;;;;;;;-0.87;44.95;99787.78;106432;1280;22601;-78
2022/03/18 03:35:57;;;;;;;23.30;20.80;;;;;;;-0.88;45.02;99789.90;105857;1280;22652;-77
2022/03/18 03:42:54;;;;;;;24.80;22.30;;;;;;;-0.96;45.21;99784.86;105941;1280;25664;-79
2022/03/18 03:45:22;;;;;;;27.60;21.80;;;;;;;-0.97;45.18;99790.34;105982;1280;24377;-78
2022/03/18 03:47:51;;;;;;;26.00;21.90;;;;;;;-0.98;45.25;99796.06;105835;1280;25414;-78
2022/03/18 03:50:19;;;;;;;24.70;22.30;;;;;;;-0.99;45.24;99794.30;105566;1280;22712;-77
2022/03/18 03:52:47;;;;;;;26.60;21.00;;;;;;;-1.01;45.41;99794.35;105553;1278;25367;-78
2022/03/18 03:55:15;;;;;;;23.30;20.80;;;;;;;-1.04;45.54;99797.66;106009;1280;24372;-77
2022/03/18 03:57:43;;;;;;;23.00;20.70;;;;;;;-1.06;45.27;99797.57;105711;1280;25345;-77
2022/03/18 04:00:13;;;;;;;26.90;22.40;;;;;;;-1.06;45.32;99798.29;105540;1280;24231;-78
2022/03/18 04:02:43;;;;;;;24.90;22.10;;;;;;;-1.08;45.33;99808.01;105849;1280;25480;-76
2022/03/18 04:05:12;;;;;;;23.60;21.30;;;;;;;-1.09;45.62;99804.09;105725;1280;22654;-78
2022/03/18 04:07:42;;;;;;;25.40;22.30;;;;;;;-1.11;45.73;99809.06;105853;1280;24311;-78
2022/03/18 04:10:11;;;;;;;23.70;20.80;;;;;;;-1.12;45.35;99812.50;105747;1280;23121;-77
2022/03/18 04:12:39;;;;;;;25.10;21.20;;;;;;;-1.12;45.55;99818.69;105806;1280;22536;-77
2022/03/18 04:15:08;;;;;;;23.20;20.90;;;;;;;-1.13;45.51;99820.62;105721;1280;22709;-78
2022/03/18 04:17:38;;;;;;;24.40;21.90;;;;;;;-1.16;45.59;99822.62;105708;1280;22701;-77
2022/03/18 04:20:09;;;;;;;25.20;22.70;;;;;;;-1.19;45.68;99824.59;105723;1280;22551;-77
2022/03/18 04:22:38;;;;;;;24.90;22.00;;;;;;;-1.21;45.61;99823.65;105749;1280;22572;-77
2022/03/18 04:25:07;;;;;;;25.20;22.70;;;;;;;-1.24;45.67;99830.67;105734;1280;22708;-76
2022/03/18 04:27:36;;;;;;;24.90;22.40;;;;;;;-1.27;45.78;99835.45;105729;1280;26711;-77
2022/03/18 04:30:06;;;;;;;25.40;21.90;;;;;;;-1.30;45.86;99835.89;105802;1280;22557;-78
2022/03/18 04:32:34;;;;;;;23.70;20.60;;;;;;;-1.33;46.02;99838.36;105797;1280;22699;-77
2022/03/18 04:35:03;;;;;;;25.00;21.40;;;;;;;-1.35;46.10;99841.61;106053;1280;22681;-77
2022/03/18 04:37:31;;;;;;;25.70;23.10;;;;;;;-1.37;46.37;99840.42;105865;1280;22557;-76
2022/03/18 04:39:59;;;;;;;24.90;22.40;;;;;;;-1.40;46.32;99841.45;105818;1280;23424;-77
2022/03/18 04:42:27;;;;;;;25.20;22.70;;;;;;;-1.42;46.38;99839.90;105747;1280;22722;-77
2022/03/18 04:44:56;;;;;;;27.60;24.70;;;;;;;-1.44;46.29;99846.98;105950;1280;22556;-77
2022/03/18 04:47:29;;;;;;;23.20;21.00;;;;;;;-1.45;46.39;99843.19;105744;1280;22624;-78
2022/03/18 04:49:57;;;;;;;25.60;23.10;;;;;;;-1.46;46.27;99844.41;105744;1280;22560;-78
2022/03/18 04:52:25;;;;;;;26.50;22.80;;;;;;;-1.47;46.54;99846.27;105361;1280;22588;-78
2022/03/18 04:54:53;;;;;;;25.30;22.90;;;;;;;-1.48;46.44;99853.80;105935;1279;22664;-77
2022/03/18 04:57:22;;;;;;;26.20;23.50;;;;;;;-1.48;46.39;99855.10;105805;1280;22560;-78
2022/03/18 04:59:56;;;;;;;26.50;23.70;;;;;;;-1.50;46.76;99856.83;105782;1280;24358;-78
2022/03/18 05:02:24;;;;;;;25.50;23.10;;;;;;;-1.52;46.61;99854.29;105991;1280;22616;-77
2022/03/18 05:04:53;;;;;;;26.50;23.80;;;;;;;-1.54;46.68;99858.33;106155;1280;22753;-76
2022/03/18 05:07:21;;;;;;;33.20;24.40;;;;;;;-1.54;46.76;99862.06;106095;1280;25308;-77
2022/03/18 05:09:49;;;;;;;25.80;23.30;;;;;;;-1.55;46.89;99863.76;106124;1280;22870;-78
2022/03/18 05:12:18;;;;;;;26.50;24.10;;;;;;;-1.55;46.81;99865.91;105950;1279;25380;-78
2022/03/18 05:14:51;;;;;;;27.70;25.10;;;;;;;-1.55;46.89;99867.86;105826;1280;22696;-76
2022/03/18 05:17:20;;;;;;;25.90;23.30;;;;;;;-1.54;46.93;99869.70;105555;1280;22567;-77
2022/03/18 05:19:48;;;;;;;27.20;24.30;;;;;;;-1.54;46.93;99872.84;105601;1280;26220;-77
2022/03/18 05:22:16;;;;;;;28.80;25.80;;;;;;;-1.53;47.22;99875.58;106073;1280;22691;-77
2022/03/18 05:24:44;;;;;;;31.60;24.90;;;;;;;-1.53;47.07;99876.27;105875;1280;22547;-78
2022/03/18 05:27:11;;;;;;;28.80;25.70;;;;;;;-1.51;47.15;99880.83;105888;1280;22575;-78
2022/03/18 05:29:39;;;;;;;31.50;25.30;;;;;;;-1.50;47.16;99881.71;105782;1280;22694;-77
2022/03/18 05:32:07;;;;;;;28.20;25.20;;;;;;;-1.48;47.21;99884.79;105824;1280;25093;-77
2022/03/18 05:34:35;;;;;;;29.10;26.30;;;;;;;-1.47;47.33;99883.98;106029;1280;23117;-77
2022/03/18 05:37:06;;;;;;;26.50;23.50;;;;;;;-1.46;47.33;99890.75;105996;1280;22700;-76
2022/03/18 05:39:35;;;;;;;27.30;24.50;;;;;;;-1.46;47.47;99888.60;105660;1279;25497;-77
2022/03/18 05:42:04;;;;;;;28.20;25.30;;;;;;;-1.46;47.40;99888.80;105820;1280;22668;-79
2022/03/18 05:44:32;;;;;;;27.90;24.90;;;;;;;-1.46;47.61;99889.86;105687;1280;22571;-75
2022/03/18 05:47:00;;;;;;;27.80;24.50;;;;;;;-1.45;47.45;99887.96;105942;1280;22760;-75
2022/03/18 05:49:27;;;;;;;31.80;25.50;;;;;;;-1.43;47.76;99892.89;105757;1280;25253;-76
2022/03/18 05:51:55;;;;;;;29.10;25.30;;;;;;;-1.42;47.91;99891.95;105593;1280;25365;-77
2022/03/18 05:54:23;;;;;;;29.10;24.70;;;;;;;-1.42;47.78;99896.61;105730;1280;25379;-76
2022/03/18 05:56:54;;;;;;;31.80;24.50;;;;;;;-1.39;47.72;99898.30;105781;1280;22559;-75
2022/03/18 05:59:27;;;;;;;28.40;24.70;;;;;;;-1.36;47.80;99902.67;105459;1280;25292;-76
2022/03/18 06:01:58;;;;;;;29.80;26.80;;;;;;;-1.32;47.87;99901.23;105496;1280;24288;-77
2022/03/18 06:04:28;;;;;;;27.40;24.70;;;;;;;-1.30;47.98;99906.65;105691;1280;22661;-77
2022/03/18 06:06:56;;;;;;;71.50;26.30;;;;;;;-1.26;47.90;99909.70;105766;1280;22561;-76
2022/03/18 06:12:11;;;;;;;27.70;24.30;;;;;;;-1.19;48.05;99914.52;105586;1280;22659;-77
2022/03/18 06:14:39;;;;;;;26.60;23.80;;;;;;;-1.15;47.94;99922.02;105601;1280;24365;-78
2022/03/18 06:17:07;;;;;;;30.30;24.60;;;;;;;-1.09;47.91;99922.05;105676;1280;25626;-76
2022/03/18 06:19:35;;;;;;;27.70;24.90;;;;;;;-1.05;48.05;99929.41;105971;1280;22806;-78
2022/03/18 06:22:04;;;;;;;27.80;25.10;;;;;;;-1.06;47.99;99930.48;105963;1280;24303;-77
2022/03/18 06:24:32;;;;;;;30.20;27.10;;;;;;;-1.00;47.95;99934.61;105725;1280;25596;-77
2022/03/18 06:27:01;;;;;;;28.10;25.20;;;;;;;-0.95;48.07;99937.75;105707;1280;26534;-77
2022/03/18 06:29:29;;;;;;;28.50;25.50;;;;;;;-0.91;48.10;99939.28;105705;1280;22554;-77
2022/03/18 06:32:01;;;;;;;27.90;25.30;;;;;;;-0.89;48.10;99941.88;105601;1280;23314;-75
2022/03/18 06:34:30;;;;;;;32.80;29.60;;;;;;;-0.85;48.13;99936.27;105738;1280;25407;-78
2022/03/18 06:36:57;;;;;;;35.00;31.20;;;;;;;-0.81;48.16;99945.72;105693;1280;22613;-77
2022/03/18 06:39:26;;;;;;;32.90;29.50;;;;;;;-0.80;48.02;99943.78;105516;1279;25421;-77
2022/03/18 06:41:54;;;;;;;28.90;25.90;;;;;;;-0.76;48.13;99945.98;105398;1280;24548;-77
2022/03/18 06:44:22;;;;;;;30.10;26.90;;;;;;;-0.74;48.03;99949.97;105687;1280;22682;-77
2022/03/18 06:46:50;;;;;;;32.90;25.80;;;;;;;-0.70;48.19;99956.27;105641;1280;24537;-77
2022/03/18 06:49:18;;;;;;;29.60;26.50;;;;;;;-0.66;48.24;99954.83;105568;1280;22717;-76
2022/03/18 06:51:47;;;;;;;27.10;24.40;;;;;;;-0.62;48.29;99958.15;105660;1280;22693;-77
2022/03/18 06:54:14;;;;;;;28.00;25.30;;;;;;;-0.55;48.13;99958.29;105798;1280;24425;-78
2022/03/18 06:56:43;;;;;;;32.70;24.80;;;;;;;-0.49;48.04;99960.60;105980;1280;22976;-77
2022/03/18 06:59:11;;;;;;;31.20;25.20;;;;;;;-0.45;48.13;99955.34;105762;1280;25458;-76
2022/03/18 07:01:38;;;;;;;29.70;26.60;;;;;;;-0.42;48.06;99961.00;105690;1280;25401;-77
2022/03/18 07:04:07;;;;;;;31.90;25.70;;;;;;;-0.38;48.20;99965.28;105605;1279;23861;-76
2022/03/18 07:06:35;;;;;;;27.00;24.40;;;;;;;-0.32;48.31;99965.90;105482;1280;22562;-77
2022/03/18 07:09:03;;;;;;;30.00;26.10;;;;;;;-0.28;48.21;99966.07;105992;1280;22880;-79
2022/03/18 07:11:30;;;;;;;30.50;27.20;;;;;;;-0.21;48.25;99963.38;105787;1278;24418;-77
2022/03/18 07:13:58;;;;;;;28.30;25.00;;;;;;;-0.16;48.21;99972.83;105628;1280;22707;-76
2022/03/18 07:19:13;;;;;;;28.30;25.30;;;;;;;-0.01;48.21;99975.11;105802;1280;25398;-77
2022/03/18 07:21:41;;;;;;;27.90;23.20;;;;;;;0.11;48.29;99977.10;105769;1280;22687;-77
2022/03/18 07:24:09;;;;;;;26.80;24.30;;;;;;;0.22;48.21;99983.92;105407;1281;22694;-77
2022/03/18 07:26:37;;;;;;;30.30;25.70;;;;;;;0.35;48.25;99980.88;105750;1280;22735;-77
2022/03/18 07:29:05;;;;;;;27.80;24.80;;;;;;;0.48;48.11;99984.80;105563;1280;22547;-77
2022/03/18 07:31:33;;;;;;;29.20;25.60;;;;;;;0.58;48.14;99986.05;105938;1280;22702;-77
2022/03/18 07:34:01;;;;;;;29.50;25.80;;;;;;;0.71;48.14;99988.79;105588;1280;24404;-77
2022/03/18 07:36:29;;;;;;;27.20;24.30;;;;;;;0.84;48.05;99992.31;105702;1280;25536;-77
2022/03/18 07:38:57;;;;;;;25.90;23.20;;;;;;;0.96;48.22;99995.00;105819;1280;24392;-77
2022/03/18 07:41:25;;;;;;;27.60;24.70;;;;;;;1.09;48.16;99993.25;105754;1279;25422;-78
2022/03/18 07:43:53;;;;;;;28.80;25.80;;;;;;;1.26;47.94;99994.73;105499;1280;25429;-77
2022/03/18 07:46:21;;;;;;;27.50;23.80;;;;;;;1.42;48.03;99997.64;105681;1280;25614;-76
2022/03/18 07:48:49;;;;;;;32.00;24.30;;;;;;;1.55;47.70;100002.35;105664;1280;25336;-76
2022/03/18 07:51:16;;;;;;;27.70;24.80;;;;;;;1.63;47.60;100007.88;105777;1280;22691;-78
2022/03/18 07:53:44;;;;;;;28.40;24.90;;;;;;;1.70;47.64;100009.01;105836;1280;22701;-76
2022/03/18 07:56:12;;;;;;;29.00;24.60;;;;;;;1.78;47.48;100012.90;105593;1280;24267;-76
2022/03/18 07:58:40;;;;;;;26.20;23.40;;;;;;;1.85;47.35;100010.18;105759;1280;25428;-76
2022/03/18 08:01:10;;;;;;;24.90;22.50;;;;;;;1.90;47.29;100011.98;105614;1281;22716;-77
2022/03/18 08:03:38;;;;;;;26.60;23.70;;;;;;;1.94;47.22;100013.08;105996;1280;23200;-77
2022/03/18 08:06:06;;;;;;;27.50;24.60;;;;;;;1.96;47.06;100018.70;105942;1280;22693;-77
2022/03/18 08:08:34;;;;;;;54.30;25.80;;;;;;;1.97;47.11;100023.10;105889;1279;22722;-77
2022/03/18 08:11:02;;;;;;;28.30;25.10;;;;;;;2.01;47.18;100026.20;105943;1280;23858;-77
2022/03/18 08:13:30;;;;;;;27.50;24.40;;;;;;;2.09;47.25;100025.16;105648;1279;22806;-76
2022/03/18 08:15:58;;;;;;;26.20;23.50;;;;;;;2.14;46.89;100021.23;105705;1277;25413;-77
2022/03/18 08:18:26;;;;;;;36.30;25.60;;;;;;;2.21;46.91;100024.41;105535;1280;22749;-77
2022/03/18 08:20:54;;;;;;;29.50;26.40;;;;;;;2.29;46.79;100027.91;105885;1280;26687;-76
2022/03/18 08:23:23;;;;;;;29.10;26.20;;;;;;;2.30;46.69;100023.26;105676;1280;25125;-78
2022/03/18 08:25:51;;;;;;;29.10;26.00;;;;;;;2.35;46.74;100027.42;105861;1280;24517;-77
2022/03/18 08:28:19;;;;;;;28.30;25.30;;;;;;;2.41;46.79;100033.45;106313;1279;24278;-76
2022/03/18 08:30:47;;;;;;;27.90;25.20;;;;;;;2.47;46.65;100035.55;106025;1281;23510;-76
2022/03/18 08:33:15;;;;;;;28.30;25.20;;;;;;;2.54;46.74;100042.34;105828;1279;24454;-76
2022/03/18 08:35:43;;;;;;;39.00;26.50;;;;;;;2.63;46.68;100045.39;105934;1281;22611;-76
2022/03/18 08:38:11;;;;;;;26.80;24.00;;;;;;;2.77;46.61;100043.48;105906;1280;25438;-75
2022/03/18 08:40:39;;;;;;;27.20;24.40;;;;;;;2.88;46.44;100040.97;105770;1280;25362;-76
2022/03/18 08:43:09;;;;;;;28.00;22.90;;;;;;;3.00;46.46;100041.43;105573;1279;24282;-75
2022/03/18 08:45:38;;;;;;;25.20;22.50;;;;;;;3.18;46.26;100043.02;105762;1279;23460;-76
2022/03/18 08:48:06;;;;;;;32.00;23.10;;;;;;;3.35;45.97;100045.56;105682;1281;22674;-77
2022/03/18 08:50:35;;;;;;;38.80;35.10;;;;;;;3.53;46.09;100044.30;106057;1279;22746;-75
2022/03/18 08:53:09;;;;;;;30.10;23.10;;;;;;;3.70;45.68;100045.59;105746;1280;25423;-76
2022/03/18 08:55:40;;;;;;;31.00;22.40;;;;;;;3.80;45.60;100046.61;105851;1279;22658;-76
2022/03/18 08:58:09;;;;;;;22.30;19.90;;;;;;;3.92;45.36;100053.11;105827;1279;25392;-76
2022/03/18 09:00:37;;;;;;;23.40;20.80;;;;;;;4.05;45.17;100054.37;105765;1279;25326;-76
2022/03/18 09:03:06;;;;;;;23.10;20.60;;;;;;;4.18;44.97;100056.80;106031;1281;22720;-76
2022/03/18 09:05:34;;;;;;;26.60;20.30;;;;;;;4.34;44.92;100058.11;105783;1280;23825;-77
2022/03/18 09:08:02;;;;;;;23.30;19.50;;;;;;;4.52;44.82;100061.28;106165;1280;22595;-75
2022/03/18 09:10:30;;;;;;;22.30;19.80;;;;;;;4.63;44.66;100068.13;105752;1279;26655;-78
2022/03/18 09:13:01;;;;;;;30.80;19.90;;;;;;;4.70;44.09;100069.48;105830;1279;22495;-76
2022/03/18 09:15:30;;;;;;;22.80;19.60;;;;;;;4.79;43.69;100074.21;106199;1280;22560;-76
2022/03/18 09:17:58;;;;;;;21.90;19.10;;;;;;;4.89;43.81;100072.67;106176;1279;25497;-77
2022/03/18 09:20:26;;;;;;;25.30;22.10;;;;;;;4.95;43.26;100074.55;106125;1279;24709;-76
2022/03/18 09:22:54;;;;;;;25.80;20.50;;;;;;;5.05;43.67;100073.87;105876;1280;22549;-76
2022/03/18 09:25:22;;;;;;;25.60;18.30;;;;;;;5.16;43.30;100071.79;105786;1279;22552;-76
2022/03/18 09:27:51;;;;;;;19.40;17.50;;;;;;;5.24;42.25;100073.70;105739;1279;25574;-76
2022/03/18 09:30:41;;;;;;;23.40;18.00;;;;;;;5.33;42.08;100076.52;105773;1279;24614;-77
2022/03/18 09:33:10;;;;;;;21.50;19.30;;;;;;;5.39;42.12;100075.83;106186;1279;24332;-76
2022/03/18 09:35:38;;;;;;;21.90;19.30;;;;;;;5.49;41.89;100075.38;105769;1279;22699;-77
2022/03/18 09:38:06;;;;;;;24.10;19.30;;;;;;;5.60;42.29;100079.52;106153;1279;24398;-76
2022/03/18 09:40:34;;;;;;;20.30;17.10;;;;;;;5.74;41.61;100083.03;106228;1279;24156;-77
2022/03/18 09:43:22;;;;;;;20.30;18.00;;;;;;;5.85;41.49;100080.84;105876;1281;25313;-76
2022/03/18 09:45:50;;;;;;;20.30;18.30;;;;;;;5.92;41.81;100078.39;105837;1280;22576;-75
2022/03/18 09:48:39;;;;;;;24.40;18.60;;;;;;;6.04;41.40;100078.70;105795;1280;23982;-76
2022/03/18 09:51:08;;;;;;;20.60;18.20;;;;;;;6.16;41.34;100080.02;105821;1280;23227;-78
2022/03/18 09:53:36;;;;;;;30.40;17.50;;;;;;;6.25;41.43;100083.18;106095;1280;24246;-76
2022/03/18 09:56:05;;;;;;;18.60;16.70;;;;;;;6.41;40.96;100092.75;106191;1280;22540;-76
2022/03/18 09:58:33;;;;;;;20.30;18.20;;;;;;;6.56;40.80;100094.77;106164;1279;23089;-76
2022/03/18 10:01:01;;;;;;;22.20;19.00;;;;;;;6.67;40.26;100098.08;106063;1279;22579;-77
2022/03/18 10:03:40;;;;;;;20.50;17.90;;;;;;;6.77;40.65;100093.48;106015;1281;25381;-75
2022/03/18 10:06:11;;;;;;;20.20;17.10;;;;;;;6.90;40.07;100091.63;106167;1279;24455;-76
2022/03/18 10:08:39;;;;;;;19.80;17.70;;;;;;;7.02;39.86;100092.27;106091;1279;24286;-76
2022/03/18 10:11:20;;;;;;;21.40;19.20;;;;;;;7.11;39.57;100098.64;105858;1280;22553;-76
2022/03/18 10:14:03;;;;;;;19.60;17.70;;;;;;;7.21;39.65;100100.23;106151;1280;22863;-77
2022/03/18 10:16:34;;;;;;;18.90;17.00;;;;;;;7.31;39.44;100103.59;106357;1280;26653;-76
2022/03/18 10:19:06;;;;;;;21.00;18.50;;;;;;;7.39;39.31;100098.30;106141;1280;22855;-76
2022/03/18 10:21:49;;;;;;;23.00;17.20;;;;;;;7.47;39.31;100102.39;106407;1280;22695;-76
2022/03/18 10:24:19;;;;;;;19.50;17.60;;;;;;;7.58;38.72;100097.80;106185;1280;22570;-76
2022/03/18 10:26:49;;;;;;;25.20;19.40;;;;;;;7.66;39.07;100097.77;106227;1280;24121;-76
2022/03/18 10:29:18;;;;;;;24.00;21.40;;;;;;;7.79;38.84;100099.05;106170;1281;25454;-73
2022/03/18 10:32:00;;;;;;;21.50;19.30;;;;;;;7.96;39.02;100101.69;105838;1279;22704;-77
2022/03/18 10:37:26;;;;;;;35.20;21.40;;;;;;;8.17;38.23;100095.42;106081;1280;22707;-76
2022/03/18 10:40:00;;;;;;;26.00;20.70;;;;;;;8.26;38.43;100093.04;106169;1280;25418;-76
2022/03/18 10:42:28;;;;;;;25.80;22.70;;;;;;;8.37;38.29;100094.45;106105;1280;24992;-76
2022/03/18 10:44:59;;;;;;;50.30;21.40;;;;;;;8.47;38.26;100092.59;105855;1277;24455;-75
2022/03/18 10:47:38;;;;;;;22.40;20.20;;;;;;;8.55;37.78;100092.98;105872;1280;22750;-75
2022/03/18 10:50:24;;;;;;;23.00;20.40;;;;;;;8.61;37.68;100094.10;105986;1281;24338;-76
2022/03/18 10:53:01;;;;;;;24.10;21.70;;;;;;;8.70;37.39;100092.01;105925;1281;22697;-76
2022/03/18 10:55:35;;;;;;;28.70;19.00;;;;;;;8.80;37.59;100091.87;106208;1280;22689;-76
2022/03/18 10:58:05;;;;;;;;;;;;;;;8.89;37.26;100096.27;106224;1280;23142;-76
2022/03/18 11:00:36;;;;;;;24.70;19.40;;;;;;;8.94;37.46;100099.41;105810;1280;22562;-78
2022/03/18 11:03:05;;;;;;;21.70;19.20;;;;;;;9.03;37.38;100097.50;106156;1279;24097;-76
2022/03/18 11:05:39;;;;;;;25.20;20.70;;;;;;;9.13;36.94;100097.50;106161;1281;25351;-76
2022/03/18 11:08:11;;;;;;;23.50;20.20;;;;;;;9.21;36.52;100095.80;105838;1280;22970;-76
2022/03/18 11:13:31;;;;;;;28.20;25.50;;;;;;;9.33;36.77;100099.78;106200;1280;22809;-80
2022/03/18 11:15:59;;;;;;;22.60;20.20;;;;;;;9.40;36.47;100099.11;106100;1280;24758;-77
2022/03/18 11:18:29;;;;;;;21.00;18.80;;;;;;;9.47;36.27;100101.85;105917;1281;22695;-75
2022/03/18 11:21:01;;;;;;;21.10;18.80;;;;;;;9.54;36.23;100098.08;105811;1280;23879;-76
2022/03/18 11:23:30;;;;;;;24.50;20.60;;;;;;;9.62;36.09;100099.98;105793;1281;22710;-75
2022/03/18 11:26:00;;;;;;;23.30;20.80;;;;;;;9.64;35.76;100100.19;105870;1280;25315;-75
2022/03/18 11:28:30;;;;;;;23.20;20.80;;;;;;;9.73;35.80;100098.55;106288;1280;24357;-77
2022/03/18 11:31:03;;;;;;;22.60;20.30;;;;;;;9.86;35.80;100101.71;106192;1281;22759;-76
2022/03/18 11:33:36;;;;;;;22.20;20.00;;;;;;;9.99;35.93;100097.92;106150;1281;22908;-76
2022/03/18 11:36:06;;;;;;;30.10;23.40;;;;;;;10.13;35.83;100100.71;106030;1280;25328;-76
2022/03/18 11:38:51;;;;;;;21.00;18.80;;;;;;;10.31;35.51;100098.89;106158;1280;22564;-76
2022/03/18 11:41:19;;;;;;;29.80;24.90;;;;;;;10.36;35.52;100100.76;105780;1280;22561;-76
2022/03/18 11:43:47;;;;;;;34.00;19.80;;;;;;;10.42;35.19;100104.21;105720;1279;24314;-77
2022/03/18 11:46:20;;;;;;;31.40;18.50;;;;;;;10.43;35.33;100102.02;106092;1281;22561;-77